createdAt,value
2022-10-02T00:04:44.713Z,4.15
2022-10-02T00:09:54.477Z,5.05
2022-10-02T00:14:50.869Z,3.92
2022-10-02T00:19:44.537Z,3.42
2022-10-02T00:24:46.646Z,3.53
2022-10-02T00:29:39.653Z,3.97
2022-10-02T00:34:54.948Z,3.50
2022-10-02T00:40:09.749Z,2.90
2022-10-02T00:45:40.528Z,2.40
2022-10-02T00:50:48.376Z,2.50
2022-10-02T00:56:05.472Z,1.98
2022-10-02T01:01:05.962Z,2.08
2022-10-02T01:06:00.268Z,2.70
2022-10-02T01:10:53.731Z,1.60
2022-10-02T01:15:54.233Z,1.65
2022-10-02T01:20:59.276Z,1.42
2022-10-02T01:25:52.695Z,1.95
2022-10-02T01:30:49.817Z,1.90
2022-10-02T01:35:43.956Z,1.70
2022-10-02T01:40:42.294Z,2.70
2022-10-02T01:46:03.647Z,2.40
2022-10-02T01:51:18.040Z,2.17
2022-10-02T01:56:19.139Z,2.72
2022-10-02T02:01:28.043Z,3.03
2022-10-02T02:06:31.351Z,2.53
2022-10-02T02:11:25.248Z,3.03
2022-10-02T02:16:36.721Z,2.80
2022-10-02T02:21:41.523Z,3.45
2022-10-02T02:26:33.848Z,2.63
2022-10-02T02:31:31.699Z,3.90
2022-10-02T02:36:28.888Z,3.63
2022-10-02T02:41:25.491Z,4.05
2022-10-02T02:47:13.331Z,4.55
2022-10-02T02:52:11.064Z,3.38
2022-10-02T02:57:05.841Z,3.75
2022-10-02T03:02:00.182Z,3.08
2022-10-02T03:06:58.703Z,3.20
2022-10-02T03:12:37.013Z,4.93
2022-10-02T03:17:36.051Z,4.95
2022-10-02T03:22:35.581Z,7.78
2022-10-02T03:27:36.827Z,8.60
2022-10-02T03:32:31.381Z,7.53
2022-10-02T03:37:25.872Z,6.13
2022-10-02T03:42:58.663Z,7.63
2022-10-02T03:47:51.902Z,7.45
2022-10-02T03:52:46.005Z,6.20
2022-10-02T03:57:40.086Z,4.57
2022-10-02T04:02:41.747Z,4.82
2022-10-02T04:07:39.170Z,5.80
2022-10-02T04:12:39.862Z,5.57
2022-10-02T04:17:44.647Z,4.90
2022-10-02T04:22:44.091Z,4.53
2022-10-02T04:27:37.113Z,3.53
2022-10-02T04:32:35.753Z,3.13
2022-10-02T04:37:37.904Z,3.97
2022-10-02T04:43:15.630Z,3.45
2022-10-02T04:48:14.215Z,4.53
2022-10-02T04:53:16.628Z,4.78
2022-10-02T04:58:11.896Z,4.25
2022-10-02T05:03:32.211Z,4.15
2022-10-02T05:08:33.815Z,4.32
2022-10-02T05:13:32.372Z,4.10
2022-10-02T05:18:42.804Z,4.60
2022-10-02T05:23:38.845Z,4.15
2022-10-02T05:28:40.836Z,4.47
2022-10-02T05:34:03.512Z,4.03
2022-10-02T05:39:31.125Z,4.57
2022-10-02T05:44:31.107Z,4.78
2022-10-02T05:49:47.574Z,3.80
2022-10-02T05:55:08.715Z,5.07
2022-10-02T06:00:32.025Z,4.35
2022-10-02T06:05:31.417Z,5.72
2022-10-02T06:10:48.405Z,5.88
2022-10-02T06:16:11.930Z,6.53
2022-10-02T06:21:33.705Z,4.85
2022-10-02T06:26:43.068Z,5.65
2022-10-02T06:32:02.118Z,4.85
2022-10-02T06:37:19.656Z,4.53
2022-10-02T06:42:53.279Z,3.60
2022-10-02T06:47:57.881Z,3.88
2022-10-02T06:52:58.979Z,3.28
2022-10-02T06:58:10.291Z,3.80
2022-10-02T07:03:17.540Z,3.47
2022-10-02T07:08:30.009Z,2.97
2022-10-02T07:14:00.247Z,2.60
2022-10-02T07:24:02.811Z,2.40
2022-10-02T07:29:15.894Z,2.80
2022-10-02T07:34:34.308Z,2.15
2022-10-02T07:39:59.526Z,1.92
2022-10-02T07:45:08.244Z,1.73
2022-10-02T07:50:17.738Z,2.72
2022-10-02T07:55:42.457Z,3.25
2022-10-02T08:01:15.224Z,3.35
2022-10-02T08:06:08.885Z,1.83
2022-10-02T08:11:12.496Z,2.00
2022-10-02T08:16:07.110Z,1.70
2022-10-02T08:21:19.897Z,1.45
2022-10-02T08:26:35.357Z,1.10
2022-10-02T08:31:29.625Z,1.63
2022-10-02T08:36:52.405Z,1.40
2022-10-02T08:42:21.109Z,1.33
2022-10-02T08:47:33.848Z,1.52
2022-10-02T08:53:14.808Z,1.75
2022-10-02T08:58:13.531Z,1.10
2022-10-02T09:03:28.920Z,1.25
2022-10-02T09:08:34.485Z,1.00
2022-10-02T09:13:54.840Z,1.50
2022-10-02T09:19:13.055Z,0.90
2022-10-02T09:24:06.464Z,1.20
2022-10-02T09:29:23.768Z,1.98
2022-10-02T09:34:49.203Z,1.25
2022-10-02T09:39:52.162Z,1.48
2022-10-02T09:45:15.668Z,1.45
2022-10-02T09:50:23.567Z,1.17
2022-10-02T09:55:29.758Z,1.00
2022-10-02T10:00:45.297Z,1.60
2022-10-02T10:06:17.046Z,0.93
2022-10-02T10:11:39.696Z,1.17
2022-10-02T10:16:54.196Z,1.10
2022-10-02T10:22:26.770Z,1.20
2022-10-02T10:27:56.268Z,0.98
2022-10-02T10:33:11.197Z,1.13
2022-10-02T10:38:34.344Z,1.25
2022-10-02T10:43:48.453Z,1.63
2022-10-02T10:49:15.907Z,2.47
2022-10-02T10:54:44.117Z,3.03
2022-10-02T11:00:03.037Z,1.10
2022-10-02T11:05:12.553Z,1.10
2022-10-02T11:10:22.198Z,1.52
2022-10-02T11:15:41.429Z,1.20
2022-10-02T11:21:05.395Z,1.95
2022-10-02T11:26:17.144Z,1.20
2022-10-02T11:31:50.661Z,1.02
2022-10-02T11:37:10.389Z,1.33
2022-10-02T11:42:12.700Z,0.95
2022-10-02T11:47:19.256Z,1.05
2022-10-02T11:52:35.928Z,1.10
2022-10-02T11:57:50.596Z,1.23
2022-10-02T12:02:58.859Z,1.27
2022-10-02T12:07:59.116Z,1.88
2022-10-02T12:13:16.822Z,1.02
2022-10-02T12:18:24.958Z,1.25
2022-10-02T12:24:08.173Z,0.95
2022-10-02T12:29:42.862Z,1.20
2022-10-02T12:34:48.980Z,0.80
2022-10-02T12:40:14.656Z,1.15
2022-10-02T12:45:23.090Z,1.40
2022-10-02T12:50:28.536Z,1.17
2022-10-02T12:55:37.109Z,1.25
2022-10-02T13:00:36.729Z,2.10
2022-10-02T13:05:35.994Z,1.20
2022-10-02T13:10:41.333Z,1.50
2022-10-02T13:15:39.778Z,1.02
2022-10-02T13:20:43.928Z,1.27
2022-10-02T13:26:13.567Z,1.15
2022-10-02T13:31:36.326Z,3.33
2022-10-02T13:37:02.331Z,1.20
2022-10-02T13:42:30.139Z,1.23
2022-10-02T13:47:34.787Z,1.80
2022-10-02T13:52:53.033Z,1.60
2022-10-02T13:58:00.283Z,1.55
2022-10-02T14:08:26.805Z,1.50
2022-10-02T14:13:46.587Z,1.40
2022-10-02T14:18:43.543Z,1.40
2022-10-02T14:24:12.821Z,1.48
2022-10-02T14:29:35.857Z,1.40
2022-10-02T14:34:50.847Z,1.45
2022-10-02T14:39:46.312Z,1.35
2022-10-02T14:45:01.193Z,1.40
2022-10-02T14:50:22.324Z,1.20
2022-10-02T14:55:44.757Z,1.55
2022-10-02T15:01:10.034Z,1.70
2022-10-02T15:06:03.445Z,1.92
2022-10-02T15:10:58.231Z,1.55
2022-10-02T15:16:14.103Z,1.48
2022-10-02T15:21:37.889Z,3.03
2022-10-02T15:26:51.358Z,1.85
2022-10-02T15:32:16.596Z,1.58
2022-10-02T15:37:37.271Z,1.38
2022-10-02T15:43:12.574Z,1.75
2022-10-02T15:48:47.900Z,1.27
2022-10-02T15:53:43.605Z,1.95
2022-10-02T15:59:04.405Z,1.30
2022-10-02T16:04:10.217Z,2.17
2022-10-02T16:09:34.156Z,1.30
2022-10-02T16:14:36.547Z,1.42
2022-10-02T16:19:36.986Z,1.25
2022-10-02T16:24:39.190Z,1.25
2022-10-02T16:29:38.086Z,1.83
2022-10-02T16:35:11.544Z,1.60
2022-10-02T16:40:49.646Z,1.45
2022-10-02T16:45:51.017Z,1.38
2022-10-02T16:51:03.385Z,1.70
2022-10-02T16:56:10.928Z,3.10
2022-10-02T17:01:16.206Z,2.07
2022-10-02T17:06:16.639Z,1.80
2022-10-02T17:11:18.494Z,1.85
2022-10-02T17:16:21.404Z,1.50
2022-10-02T17:21:20.601Z,1.50
2022-10-02T17:26:24.335Z,1.80
2022-10-02T17:31:36.547Z,1.95
2022-10-02T17:36:55.703Z,1.88
2022-10-02T17:42:19.442Z,2.13
2022-10-02T17:47:40.089Z,2.25
2022-10-02T17:53:05.661Z,3.13
2022-10-02T17:58:06.742Z,2.40
2022-10-02T18:03:10.995Z,2.65
2022-10-02T18:08:19.362Z,2.95
2022-10-02T18:13:43.992Z,2.20
2022-10-02T18:18:41.945Z,2.40
2022-10-02T18:23:57.206Z,2.88
2022-10-02T18:29:17.209Z,2.92
2022-10-02T18:34:41.496Z,2.60
2022-10-02T18:39:48.279Z,2.63
2022-10-02T18:44:46.103Z,2.45
2022-10-02T18:50:17.905Z,2.88
2022-10-02T18:55:44.505Z,3.13
2022-10-02T19:01:15.426Z,3.58
2022-10-02T19:06:23.362Z,2.78
2022-10-02T19:11:39.846Z,3.15
2022-10-02T19:16:34.584Z,4.47
2022-10-02T19:21:28.733Z,3.80
2022-10-02T19:26:21.693Z,3.80
2022-10-02T19:31:41.861Z,4.20
2022-10-02T19:36:43.387Z,3.97
2022-10-02T19:41:46.099Z,4.00
2022-10-02T19:46:42.470Z,3.40
2022-10-02T19:51:44.726Z,3.53
2022-10-02T19:56:44.242Z,4.75
2022-10-02T20:02:05.093Z,4.88
2022-10-02T20:07:00.710Z,4.25
2022-10-02T20:12:04.761Z,4.30
2022-10-02T20:17:11.250Z,4.60
2022-10-02T20:22:16.596Z,5.10
2022-10-02T20:27:38.336Z,5.15
2022-10-02T20:32:35.582Z,4.03
2022-10-02T20:37:38.211Z,4.82
2022-10-02T20:42:44.741Z,6.10
2022-10-02T20:47:41.461Z,5.70
2022-10-02T20:53:06.453Z,4.95
2022-10-02T20:58:05.210Z,5.03
2022-10-02T21:03:04.512Z,6.13
2022-10-02T21:13:36.162Z,5.40
2022-10-02T21:19:13.613Z,7.25
2022-10-02T21:24:30.447Z,5.85
2022-10-02T21:30:03.501Z,4.97
2022-10-02T21:35:44.421Z,5.88
2022-10-02T21:41:22.467Z,5.22
2022-10-02T21:46:28.623Z,4.35
2022-10-02T21:51:41.269Z,5.05
2022-10-02T21:56:49.630Z,3.90
2022-10-02T22:02:08.620Z,3.92
2022-10-02T22:07:30.747Z,4.13
2022-10-02T22:12:45.828Z,3.72
2022-10-02T22:18:05.458Z,3.78
2022-10-02T22:28:19.666Z,3.97
2022-10-02T22:33:38.237Z,3.47
2022-10-02T22:38:38.137Z,3.35
2022-10-02T22:43:36.417Z,2.80
2022-10-02T22:48:53.029Z,3.50
2022-10-02T22:53:49.824Z,3.85
2022-10-02T22:58:49.440Z,3.78
2022-10-02T23:03:58.277Z,5.00
2022-10-02T23:09:07.578Z,4.10
2022-10-02T23:19:21.977Z,3.70
2022-10-02T23:24:24.233Z,5.18
2022-10-02T23:29:36.629Z,3.97
2022-10-02T23:34:39.756Z,3.13
2022-10-02T23:39:51.477Z,3.15
2022-10-02T23:44:50.582Z,2.53
2022-10-02T23:49:50.162Z,2.20
